sensor_id;sensor_type;location;lat;lon;timestamp;pressure;altitude;pressure_sealevel;temperature;humidity
6668;BME280;3370;47.712;9.082;2023-07-16T07:36:33;97197.59;;;18.20;81.83
6668;BME280;3370;47.712;9.082;2023-07-16T07:39:00;97201.63;;;18.25;79.83
6668;BME280;3370;47.712;9.082;2023-07-16T07:41:26;97212.16;;;18.34;79.17
6668;BME280;3370;47.712;9.082;2023-07-16T07:43:51;97218.38;;;18.45;79.60
6668;BME280;3370;47.712;9.082;2023-07-16T07:46:17;97224.50;;;18.44;77.46
6668;BME280;3370;47.712;9.082;2023-07-16T07:48:43;97214.97;;;18.55;76.53
6668;BME280;3370;47.712;9.082;2023-07-16T07:51:09;97217.84;;;18.64;78.43
6668;BME280;3370;47.712;9.082;2023-07-16T07:53:34;97216.03;;;18.53;77.84
6668;BME280;3370;47.712;9.082;2023-07-16T07:56:00;97209.94;;;18.41;77.45
6668;BME280;3370;47.712;9.082;2023-07-16T07:58:26;97207.88;;;18.57;77.15
6668;BME280;3370;47.712;9.082;2023-07-16T08:00:52;97214.88;;;18.68;78.01
6668;BME280;3370;47.712;9.082;2023-07-16T08:03:17;97219.16;;;18.81;77.70
6668;BME280;3370;47.712;9.082;2023-07-16T08:05:43;97224.38;;;18.81;78.02
6668;BME280;3370;47.712;9.082;2023-07-16T08:08:09;97218.78;;;18.63;77.17
6668;BME280;3370;47.712;9.082;2023-07-16T08:10:35;97209.38;;;18.95;75.29
6668;BME280;3370;47.712;9.082;2023-07-16T08:13:00;97213.16;;;19.03;77.36
6668;BME280;3370;47.712;9.082;2023-07-16T08:15:26;97214.88;;;18.68;77.54
6668;BME280;3370;47.712;9.082;2023-07-16T08:17:52;97212.16;;;18.70;77.96
6668;BME280;3370;47.712;9.082;2023-07-16T08:20:18;97209.84;;;18.89;77.66
6668;BME280;3370;47.712;9.082;2023-07-16T08:22:43;97201.19;;;18.89;77.32
6668;BME280;3370;47.712;9.082;2023-07-16T08:25:09;97201.31;;;19.10;79.64
6668;BME280;3370;47.712;9.082;2023-07-16T08:27:35;97204.41;;;19.04;77.94
6668;BME280;3370;47.712;9.082;2023-07-16T08:30:01;97200.84;;;18.82;77.06
6668;BME280;3370;47.712;9.082;2023-07-16T08:32:27;97203.53;;;18.81;75.40
6668;BME280;3370;47.712;9.082;2023-07-16T08:34:52;97189.22;;;18.86;77.63
6668;BME280;3370;47.712;9.082;2023-07-16T08:37:18;97202.97;;;19.00;76.65
6668;BME280;3370;47.712;9.082;2023-07-16T08:39:44;97204.41;;;19.04;75.06
6668;BME280;3370;47.712;9.082;2023-07-16T08:42:10;97203.00;;;19.11;75.19
6668;BME280;3370;47.712;9.082;2023-07-16T08:44:37;97199.66;;;19.31;74.93
6668;BME280;3370;47.712;9.082;2023-07-16T08:47:05;97201.53;;;19.52;72.65
6668;BME280;3370;47.712;9.082;2023-07-16T08:49:34;97209.00;;;19.57;71.72
6668;BME280;3370;47.712;9.082;2023-07-16T08:52:02;97205.06;;;19.62;72.68
6668;BME280;3370;47.712;9.082;2023-07-16T08:54:28;97194.97;;;19.58;73.24
6668;BME280;3370;47.712;9.082;2023-07-16T08:56:54;97211.22;;;19.61;73.16
6668;BME280;3370;47.712;9.082;2023-07-16T08:59:21;97207.88;;;19.93;72.60
6668;BME280;3370;47.712;9.082;2023-07-16T09:01:47;97226.03;;;20.16;72.64
6668;BME280;3370;47.712;9.082;2023-07-16T09:04:15;97223.25;;;20.28;70.00
6668;BME280;3370;47.712;9.082;2023-07-16T09:06:42;97222.06;;;20.54;70.61
6668;BME280;3370;47.712;9.082;2023-07-16T09:09:08;97221.13;;;20.76;69.42
6668;BME280;3370;47.712;9.082;2023-07-16T09:11:33;97218.91;;;20.92;69.46
6668;BME280;3370;47.712;9.082;2023-07-16T09:14:02;97231.28;;;20.69;69.20
6668;BME280;3370;47.712;9.082;2023-07-16T09:16:33;97212.06;;;20.17;70.06
6668;BME280;3370;47.712;9.082;2023-07-16T09:19:09;97212.38;;;20.44;69.22
6668;BME280;3370;47.712;9.082;2023-07-16T09:21:36;97211.72;;;20.63;69.69
6668;BME280;3370;47.712;9.082;2023-07-16T09:24:09;97208.03;;;20.13;70.40
6668;BME280;3370;47.712;9.082;2023-07-16T09:26:38;97194.94;;;20.24;69.04
6668;BME280;3370;47.712;9.082;2023-07-16T09:29:08;97192.78;;;20.29;69.06
6668;BME280;3370;47.712;9.082;2023-07-16T09:31:33;97196.19;;;20.29;68.68
6668;BME280;3370;47.712;9.082;2023-07-16T09:33:59;97206.31;;;20.23;69.53
6668;BME280;3370;47.712;9.082;2023-07-16T09:36:25;97209.38;;;20.28;70.25
6668;BME280;3370;47.712;9.082;2023-07-16T09:38:54;97204.75;;;19.99;70.32
6668;BME280;3370;47.712;9.082;2023-07-16T09:41:21;97202.81;;;20.13;69.01
6668;BME280;3370;47.712;9.082;2023-07-16T09:43:47;97213.91;;;20.26;72.09
6668;BME280;3370;47.712;9.082;2023-07-16T09:46:13;97209.59;;;20.57;71.74
6668;BME280;3370;47.712;9.082;2023-07-16T09:48:39;97199.25;;;20.67;69.04
6668;BME280;3370;47.712;9.082;2023-07-16T09:51:07;97203.09;;;20.52;68.73
6668;BME280;3370;47.712;9.082;2023-07-16T09:53:40;97206.19;;;19.92;72.25
6668;BME280;3370;47.712;9.082;2023-07-16T09:56:10;97214.94;;;20.02;71.60
6668;BME280;3370;47.712;9.082;2023-07-16T09:58:38;97220.78;;;19.95;73.12
6668;BME280;3370;47.712;9.082;2023-07-16T10:01:04;97216.66;;;19.81;72.92
6668;BME280;3370;47.712;9.082;2023-07-16T10:03:31;97215.31;;;19.98;72.68
6668;BME280;3370;47.712;9.082;2023-07-16T10:06:08;97215.34;;;20.19;73.93
6668;BME280;3370;47.712;9.082;2023-07-16T10:08:34;97216.78;;;20.44;72.32
6668;BME280;3370;47.712;9.082;2023-07-16T10:11:00;97216.28;;;20.50;68.53
6668;BME280;3370;47.712;9.082;2023-07-16T10:13:26;97207.66;;;20.71;67.41
6668;BME280;3370;47.712;9.082;2023-07-16T10:15:55;97206.16;;;20.57;69.00
6668;BME280;3370;47.712;9.082;2023-07-16T10:18:30;97212.38;;;20.44;69.59
6668;BME280;3370;47.712;9.082;2023-07-16T10:21:07;97218.19;;;20.27;71.00
6668;BME280;3370;47.712;9.082;2023-07-16T10:23:45;97212.38;;;20.44;70.53
6668;BME280;3370;47.712;9.082;2023-07-16T10:26:15;97217.78;;;20.85;70.18
6668;BME280;3370;47.712;9.082;2023-07-16T10:28:41;97217.47;;;21.09;68.12
6668;BME280;3370;47.712;9.082;2023-07-16T10:31:21;97220.19;;;20.98;66.91
6668;BME280;3370;47.712;9.082;2023-07-16T10:34:02;97214.66;;;21.01;69.18
6668;BME280;3370;47.712;9.082;2023-07-16T10:36:40;97210.78;;;20.95;68.61
6668;BME280;3370;47.712;9.082;2023-07-16T10:39:06;97207.13;;;21.38;67.04
6668;BME280;3370;47.712;9.082;2023-07-16T10:41:32;97212.44;;;21.58;67.80
6668;BME280;3370;47.712;9.082;2023-07-16T10:43:59;97212.16;;;21.51;68.05
6668;BME280;3370;47.712;9.082;2023-07-16T10:46:25;97215.88;;;21.49;69.18
6668;BME280;3370;47.712;9.082;2023-07-16T10:48:52;97219.75;;;21.23;69.31
6668;BME280;3370;47.712;9.082;2023-07-16T10:51:24;97217.34;;;21.41;68.72
6668;BME280;3370;47.712;9.082;2023-07-16T10:53:50;97212.97;;;21.52;68.08
6668;BME280;3370;47.712;9.082;2023-07-16T10:56:16;97207.16;;;21.48;68.79
6668;BME280;3370;47.712;9.082;2023-07-16T10:58:42;97210.00;;;21.76;67.77
6668;BME280;3370;47.712;9.082;2023-07-16T11:01:09;97212.72;;;21.64;67.55
6668;BME280;3370;47.712;9.082;2023-07-16T11:03:35;97213.81;;;21.52;67.35
6668;BME280;3370;47.712;9.082;2023-07-16T11:06:09;97208.19;;;21.26;67.12
6668;BME280;3370;47.712;9.082;2023-07-16T11:08:35;97198.72;;;21.35;67.45
6668;BME280;3370;47.712;9.082;2023-07-16T11:11:01;97196.91;;;21.35;68.34
6668;BME280;3370;47.712;9.082;2023-07-16T11:13:32;97202.38;;;21.22;68.12
6668;BME280;3370;47.712;9.082;2023-07-16T11:16:07;97193.66;;;21.43;70.16
6668;BME280;3370;47.712;9.082;2023-07-16T11:18:33;97192.59;;;21.46;67.90
6668;BME280;3370;47.712;9.082;2023-07-16T11:20:59;97197.00;;;21.45;67.39
6668;BME280;3370;47.712;9.082;2023-07-16T11:23:25;97194.25;;;21.47;67.55
6668;BME280;3370;47.712;9.082;2023-07-16T11:25:52;97207.09;;;21.69;70.62
6668;BME280;3370;47.712;9.082;2023-07-16T11:28:18;97206.69;;;21.74;68.04
6668;BME280;3370;47.712;9.082;2023-07-16T11:30:44;97206.66;;;21.54;67.92
6668;BME280;3370;47.712;9.082;2023-07-16T11:33:13;97197.63;;;21.78;68.06
6668;BME280;3370;47.712;9.082;2023-07-16T11:35:40;97197.09;;;22.23;67.61
6668;BME280;3370;47.712;9.082;2023-07-16T11:38:06;97198.59;;;22.16;67.15
6668;BME280;3370;47.712;9.082;2023-07-16T11:40:35;97197.38;;;22.39;65.85
6668;BME280;3370;47.712;9.082;2023-07-16T11:43:11;97198.44;;;22.66;65.55
6668;BME280;3370;47.712;9.082;2023-07-16T11:45:38;97182.63;;;22.95;65.62
6668;BME280;3370;47.712;9.082;2023-07-16T11:48:04;97189.09;;;23.01;64.76
6668;BME280;3370;47.712;9.082;2023-07-16T11:50:30;97183.28;;;23.17;63.05
6668;BME280;3370;47.712;9.082;2023-07-16T11:53:01;97181.78;;;22.95;63.34
6668;BME280;3370;47.712;9.082;2023-07-16T11:55:27;97170.22;;;22.21;64.94
6668;BME280;3370;47.712;9.082;2023-07-16T11:57:53;97172.28;;;22.27;65.00
6668;BME280;3370;47.712;9.082;2023-07-16T12:00:19;97171.34;;;22.28;67.10
6668;BME280;3370;47.712;9.082;2023-07-16T12:02:45;97180.28;;;22.35;65.78
6668;BME280;3370;47.712;9.082;2023-07-16T12:05:21;97177.78;;;21.95;67.72
6668;BME280;3370;47.712;9.082;2023-07-16T12:07:47;97180.66;;;21.82;68.53
6668;BME280;3370;47.712;9.082;2023-07-16T12:10:12;97176.38;;;21.61;67.64
6668;BME280;3370;47.712;9.082;2023-07-16T12:12:38;97171.69;;;21.65;68.34
6668;BME280;3370;47.712;9.082;2023-07-16T12:15:06;97177.72;;;21.46;67.75
6668;BME280;3370;47.712;9.082;2023-07-16T12:17:32;97176.56;;;21.39;69.32
6668;BME280;3370;47.712;9.082;2023-07-16T12:19:58;97170.84;;;21.64;66.92
6668;BME280;3370;47.712;9.082;2023-07-16T12:22:24;97174.16;;;21.47;65.86
6668;BME280;3370;47.712;9.082;2023-07-16T12:24:50;97159.81;;;21.51;66.85
6668;BME280;3370;47.712;9.082;2023-07-16T12:27:17;97160.97;;;21.78;65.72
6668;BME280;3370;47.712;9.082;2023-07-16T12:29:43;97167.19;;;22.35;64.34
6668;BME280;3370;47.712;9.082;2023-07-16T12:32:09;97157.38;;;22.47;62.20
6668;BME280;3370;47.712;9.082;2023-07-16T12:34:35;97154.88;;;22.46;62.66
6668;BME280;3370;47.712;9.082;2023-07-16T12:37:01;97157.91;;;22.51;60.84
6668;BME280;3370;47.712;9.082;2023-07-16T12:39:28;97161.94;;;22.16;62.03
6668;BME280;3370;47.712;9.082;2023-07-16T12:41:53;97163.47;;;22.09;62.21
6668;BME280;3370;47.712;9.082;2023-07-16T12:44:19;97164.28;;;22.09;65.25
6668;BME280;3370;47.712;9.082;2023-07-16T12:46:45;97170.63;;;22.07;63.79
6668;BME280;3370;47.712;9.082;2023-07-16T12:49:11;97165.38;;;21.87;64.60
6668;BME280;3370;47.712;9.082;2023-07-16T12:51:36;97153.09;;;22.17;65.58
6668;BME280;3370;47.712;9.082;2023-07-16T12:54:02;97162.25;;;22.80;64.56
6668;BME280;3370;47.712;9.082;2023-07-16T12:56:28;97167.97;;;23.03;62.01
6668;BME280;3370;47.712;9.082;2023-07-16T12:58:54;97157.75;;;23.37;60.50
6668;BME280;3370;47.712;9.082;2023-07-16T13:01:20;97166.38;;;22.92;61.31
6668;BME280;3370;47.712;9.082;2023-07-16T13:03:46;97158.22;;;22.85;62.63
6668;BME280;3370;47.712;9.082;2023-07-16T13:06:11;97160.50;;;23.08;62.25
6668;BME280;3370;47.712;9.082;2023-07-16T13:08:37;97166.38;;;22.92;60.89
6668;BME280;3370;47.712;9.082;2023-07-16T13:11:03;97161.03;;;23.11;62.53
6668;BME280;3370;47.712;9.082;2023-07-16T13:13:29;97164.97;;;22.88;62.21
6668;BME280;3370;47.712;9.082;2023-07-16T13:15:55;97160.84;;;22.85;61.18
6668;BME280;3370;47.712;9.082;2023-07-16T13:18:21;97163.59;;;22.93;62.00
6668;BME280;3370;47.712;9.082;2023-07-16T13:20:46;97157.56;;;22.83;61.42
6668;BME280;3370;47.712;9.082;2023-07-16T13:23:12;97154.75;;;23.04;61.17
6668;BME280;3370;47.712;9.082;2023-07-16T13:25:38;97162.19;;;22.52;63.10
6668;BME280;3370;47.712;9.082;2023-07-16T13:28:06;97146.75;;;22.96;61.12
6668;BME280;3370;47.712;9.082;2023-07-16T13:30:32;97151.31;;;23.31;62.17
6668;BME280;3370;47.712;9.082;2023-07-16T13:32:57;97147.84;;;23.95;59.40
6668;BME280;3370;47.712;9.082;2023-07-16T13:35:23;97147.41;;;24.61;57.68
6668;BME280;3370;47.712;9.082;2023-07-16T13:37:49;97145.09;;;24.93;54.29
6668;BME280;3370;47.712;9.082;2023-07-16T13:40:16;97138.88;;;24.94;55.07
6668;BME280;3370;47.712;9.082;2023-07-16T13:42:42;97153.69;;;24.68;55.36
6668;BME280;3370;47.712;9.082;2023-07-16T13:45:09;97148.28;;;25.39;56.74
6668;BME280;3370;47.712;9.082;2023-07-16T13:47:34;97135.75;;;26.08;53.98
6668;BME280;3370;47.712;9.082;2023-07-16T13:50:00;97132.44;;;26.47;51.15
6668;BME280;3370;47.712;9.082;2023-07-16T13:52:26;97140.56;;;26.93;52.64
6668;BME280;3370;47.712;9.082;2023-07-16T13:54:52;97131.69;;;25.47;51.70
6668;BME280;3370;47.712;9.082;2023-07-16T13:57:17;97135.06;;;25.90;54.41
6668;BME280;3370;47.712;9.082;2023-07-16T13:59:43;97138.88;;;26.12;52.46
6668;BME280;3370;47.712;9.082;2023-07-16T14:02:09;97130.13;;;26.03;51.70
6668;BME280;3370;47.712;9.082;2023-07-16T14:04:35;97129.31;;;26.02;51.40
6668;BME280;3370;47.712;9.082;2023-07-16T14:07:00;97129.09;;;25.71;52.26
6668;BME280;3370;47.712;9.082;2023-07-16T14:09:26;97128.78;;;26.65;53.38
6668;BME280;3370;47.712;9.082;2023-07-16T14:11:52;97120.09;;;27.04;49.31
6668;BME280;3370;47.712;9.082;2023-07-16T14:14:18;97122.06;;;26.29;48.76
6668;BME280;3370;47.712;9.082;2023-07-16T14:16:44;97127.28;;;25.55;49.78
6668;BME280;3370;47.712;9.082;2023-07-16T14:19:10;97115.50;;;25.25;52.70
6668;BME280;3370;47.712;9.082;2023-07-16T14:21:39;97119.25;;;25.90;51.91
6668;BME280;3370;47.712;9.082;2023-07-16T14:24:05;97119.25;;;25.90;53.08
6668;BME280;3370;47.712;9.082;2023-07-16T14:26:31;97111.97;;;26.57;52.77
6668;BME280;3370;47.712;9.082;2023-07-16T14:28:57;97111.94;;;26.82;49.29
6668;BME280;3370;47.712;9.082;2023-07-16T14:31:22;97103.25;;;26.49;48.94
6668;BME280;3370;47.712;9.082;2023-07-16T14:33:48;97102.78;;;26.45;49.46
6668;BME280;3370;47.712;9.082;2023-07-16T14:36:14;97100.66;;;25.75;50.35
6668;BME280;3370;47.712;9.082;2023-07-16T14:38:40;97096.72;;;26.04;49.86
6668;BME280;3370;47.712;9.082;2023-07-16T14:41:05;97099.16;;;26.38;49.44
6668;BME280;3370;47.712;9.082;2023-07-16T14:43:33;97094.81;;;26.70;47.74
6668;BME280;3370;47.712;9.082;2023-07-16T14:45:59;97087.72;;;26.78;47.24
6668;BME280;3370;47.712;9.082;2023-07-16T14:48:25;97086.38;;;26.83;47.71
6668;BME280;3370;47.712;9.082;2023-07-16T14:50:53;97092.44;;;26.91;46.08
6668;BME280;3370;47.712;9.082;2023-07-16T14:53:19;97091.97;;;27.27;46.22
6668;BME280;3370;47.712;9.082;2023-07-16T14:55:49;97092.59;;;27.84;47.08
6668;BME280;3370;47.712;9.082;2023-07-16T14:58:18;97089.66;;;27.79;45.28
6668;BME280;3370;47.712;9.082;2023-07-16T15:00:44;97086.03;;;27.80;46.41
6668;BME280;3370;47.712;9.082;2023-07-16T15:03:09;97083.38;;;27.80;45.71
6668;BME280;3370;47.712;9.082;2023-07-16T15:05:36;97075.69;;;26.76;45.58
6668;BME280;3370;47.712;9.082;2023-07-16T15:08:02;97075.97;;;26.81;48.05
6668;BME280;3370;47.712;9.082;2023-07-16T15:10:29;97072.28;;;26.99;47.49
6668;BME280;3370;47.712;9.082;2023-07-16T15:12:55;97063.59;;;27.29;46.30
6668;BME280;3370;47.712;9.082;2023-07-16T15:15:21;97063.94;;;27.72;47.05
6668;BME280;3370;47.712;9.082;2023-07-16T15:17:46;97070.88;;;27.97;46.64
6668;BME280;3370;47.712;9.082;2023-07-16T15:20:12;97069.88;;;27.75;44.14
6668;BME280;3370;47.712;9.082;2023-07-16T15:22:38;97073.88;;;27.94;45.61
6668;BME280;3370;47.712;9.082;2023-07-16T15:25:05;97084.84;;;27.82;44.90
6668;BME280;3370;47.712;9.082;2023-07-16T15:27:31;97076.50;;;27.47;46.60
6668;BME280;3370;47.712;9.082;2023-07-16T15:29:57;97092.94;;;27.34;47.27
6668;BME280;3370;47.712;9.082;2023-07-16T15:32:23;97082.41;;;27.26;45.06
6668;BME280;3370;47.712;9.082;2023-07-16T15:34:48;97079.34;;;27.06;45.90
6668;BME280;3370;47.712;9.082;2023-07-16T15:37:14;97092.44;;;26.91;47.91
6668;BME280;3370;47.712;9.082;2023-07-16T15:39:40;97077.50;;;26.75;47.65
6668;BME280;3370;47.712;9.082;2023-07-16T15:42:06;97073.19;;;26.83;49.22
6668;BME280;3370;47.712;9.082;2023-07-16T15:44:32;97072.69;;;26.79;49.22
6668;BME280;3370;47.712;9.082;2023-07-16T15:46:58;97088.88;;;26.76;47.27
6668;BME280;3370;47.712;9.082;2023-07-16T15:49:25;97090.28;;;26.31;48.81
6668;BME280;3370;47.712;9.082;2023-07-16T15:51:51;97086.56;;;26.73;48.72
6668;BME280;3370;47.712;9.082;2023-07-16T15:54:17;97086.91;;;26.70;49.44
6668;BME280;3370;47.712;9.082;2023-07-16T15:56:43;97087.59;;;26.64;49.60
6668;BME280;3370;47.712;9.082;2023-07-16T15:59:09;97086.94;;;26.53;50.09
6668;BME280;3370;47.712;9.082;2023-07-16T16:01:35;97084.44;;;26.60;48.95
6668;BME280;3370;47.712;9.082;2023-07-16T16:04:02;97083.47;;;26.61;48.59
6668;BME280;3370;47.712;9.082;2023-07-16T16:06:28;97081.97;;;26.50;50.17
6668;BME280;3370;47.712;9.082;2023-07-16T16:08:54;97079.91;;;26.05;52.35
6668;BME280;3370;47.712;9.082;2023-07-16T16:11:20;97081.22;;;26.33;52.53
6668;BME280;3370;47.712;9.082;2023-07-16T16:13:47;97074.97;;;26.26;51.43
6668;BME280;3370;47.712;9.082;2023-07-16T16:16:12;97076.44;;;26.12;50.20
6668;BME280;3370;47.712;9.082;2023-07-16T16:18:39;97070.22;;;25.97;51.86
6668;BME280;3370;47.712;9.082;2023-07-16T16:21:05;97081.56;;;25.73;52.31
6668;BME280;3370;47.712;9.082;2023-07-16T16:23:31;97073.31;;;25.68;52.14
6668;BME280;3370;47.712;9.082;2023-07-16T16:25:57;97081.03;;;25.53;53.30
6668;BME280;3370;47.712;9.082;2023-07-16T16:28:22;97082.03;;;25.60;54.14
6668;BME280;3370;47.712;9.082;2023-07-16T16:30:48;97076.41;;;25.47;53.12
6668;BME280;3370;47.712;9.082;2023-07-16T16:33:14;97070.44;;;25.28;54.73
6668;BME280;3370;47.712;9.082;2023-07-16T16:35:41;97071.47;;;25.43;54.36
6668;BME280;3370;47.712;9.082;2023-07-16T16:38:08;97073.63;;;25.48;55.80
6668;BME280;3370;47.712;9.082;2023-07-16T16:40:35;97075.06;;;25.26;54.65
6668;BME280;3370;47.712;9.082;2023-07-16T16:43:03;97074.75;;;25.37;56.83
6668;BME280;3370;47.712;9.082;2023-07-16T16:45:29;97077.72;;;25.42;56.66
6668;BME280;3370;47.712;9.082;2023-07-16T16:47:55;97066.53;;;25.40;55.26
6668;BME280;3370;47.712;9.082;2023-07-16T16:50:21;97061.59;;;25.37;55.53
6668;BME280;3370;47.712;9.082;2023-07-16T16:52:47;97060.47;;;25.40;55.71
6668;BME280;3370;47.712;9.082;2023-07-16T16:55:13;97064.56;;;25.42;55.97
6668;BME280;3370;47.712;9.082;2023-07-16T16:57:39;97070.00;;;25.49;56.39
6668;BME280;3370;47.712;9.082;2023-07-16T17:00:06;97073.63;;;25.48;56.79
6668;BME280;3370;47.712;9.082;2023-07-16T17:02:37;97075.09;;;25.42;55.67
6668;BME280;3370;47.712;9.082;2023-07-16T17:05:05;97072.78;;;25.39;55.48
6668;BME280;3370;47.712;9.082;2023-07-16T17:07:31;97069.63;;;25.36;56.08
6668;BME280;3370;47.712;9.082;2023-07-16T17:09:56;97074.09;;;25.35;55.31
6668;BME280;3370;47.712;9.082;2023-07-16T17:12:22;97075.56;;;25.30;57.32
6668;BME280;3370;47.712;9.082;2023-07-16T17:14:49;97078.03;;;25.31;58.90
6668;BME280;3370;47.712;9.082;2023-07-16T17:17:15;97087.44;;;24.99;56.17
6668;BME280;3370;47.712;9.082;2023-07-16T17:19:46;97084.44;;;24.94;59.11
6668;BME280;3370;47.712;9.082;2023-07-16T17:22:12;97073.56;;;24.89;57.73
6668;BME280;3370;47.712;9.082;2023-07-16T17:24:41;97078.34;;;24.85;57.13
6668;BME280;3370;47.712;9.082;2023-07-16T17:27:07;97070.44;;;24.77;56.16
6668;BME280;3370;47.712;9.082;2023-07-16T17:29:35;97076.84;;;24.83;57.63
6668;BME280;3370;47.712;9.082;2023-07-16T17:32:01;97082.78;;;24.85;58.83
6668;BME280;3370;47.712;9.082;2023-07-16T17:34:27;97079.78;;;24.80;60.24
6668;BME280;3370;47.712;9.082;2023-07-16T17:36:54;97082.13;;;24.83;58.40
6668;BME280;3370;47.712;9.082;2023-07-16T17:39:20;97087.34;;;24.75;58.61
6668;BME280;3370;47.712;9.082;2023-07-16T17:41:46;97082.88;;;24.49;57.82
6668;BME280;3370;47.712;9.082;2023-07-16T17:44:12;97088.16;;;24.49;58.95
6668;BME280;3370;47.712;9.082;2023-07-16T17:46:39;97079.53;;;24.57;60.50
6668;BME280;3370;47.712;9.082;2023-07-16T17:49:04;97084.66;;;24.66;60.53
6668;BME280;3370;47.712;9.082;2023-07-16T17:51:31;97083.78;;;24.58;61.77
6668;BME280;3370;47.712;9.082;2023-07-16T17:53:56;97093.09;;;24.52;62.04
6668;BME280;3370;47.712;9.082;2023-07-16T17:56:22;97078.63;;;24.48;63.44
6668;BME280;3370;47.712;9.082;2023-07-16T17:58:48;97067.13;;;24.49;63.86
6668;BME280;3370;47.712;9.082;2023-07-16T18:01:14;97076.06;;;24.56;63.72
6668;BME280;3370;47.712;9.082;2023-07-16T18:03:40;97075.00;;;24.49;64.49
6668;BME280;3370;47.712;9.082;2023-07-16T18:06:06;97087.19;;;24.50;65.15
6668;BME280;3370;47.712;9.082;2023-07-16T18:08:32;97081.72;;;24.43;64.86
6668;BME280;3370;47.712;9.082;2023-07-16T18:10:57;97091.34;;;24.35;63.92
6668;BME280;3370;47.712;9.082;2023-07-16T18:13:23;97100.22;;;24.34;64.52
6668;BME280;3370;47.712;9.082;2023-07-16T18:15:49;97091.69;;;24.32;65.22
6668;BME280;3370;47.712;9.082;2023-07-16T18:18:15;97086.31;;;24.15;61.73
6668;BME280;3370;47.712;9.082;2023-07-16T18:20:41;97089.41;;;23.92;61.52
6668;BME280;3370;47.712;9.082;2023-07-16T18:23:07;97077.63;;;23.97;61.58
6668;BME280;3370;47.712;9.082;2023-07-16T18:25:33;97077.19;;;24.01;61.83
6668;BME280;3370;47.712;9.082;2023-07-16T18:27:59;97085.88;;;24.02;63.00
6668;BME280;3370;47.712;9.082;2023-07-16T18:30:24;97101.81;;;23.82;65.42
6668;BME280;3370;47.712;9.082;2023-07-16T18:32:50;97101.25;;;23.79;64.58
6668;BME280;3370;47.712;9.082;2023-07-16T18:35:16;97107.91;;;23.73;63.76
6668;BME280;3370;47.712;9.082;2023-07-16T18:37:42;97101.03;;;23.72;63.57
6668;BME280;3370;47.712;9.082;2023-07-16T18:40:08;97097.59;;;23.71;64.48
6668;BME280;3370;47.712;9.082;2023-07-16T18:42:36;97093.16;;;23.72;64.82
6668;BME280;3370;47.712;9.082;2023-07-16T18:45:01;97091.88;;;23.76;65.13
6668;BME280;3370;47.712;9.082;2023-07-16T18:47:31;97088.28;;;23.77;65.71
6668;BME280;3370;47.712;9.082;2023-07-16T18:49:59;97088.56;;;23.74;66.66
6668;BME280;3370;47.712;9.082;2023-07-16T18:52:25;97085.56;;;23.69;66.87
6668;BME280;3370;47.712;9.082;2023-07-16T18:54:51;97085.38;;;23.62;67.59
6668;BME280;3370;47.712;9.082;2023-07-16T18:57:17;97074.63;;;23.56;69.30
6668;BME280;3370;47.712;9.082;2023-07-16T18:59:43;97082.78;;;23.52;70.30
6668;BME280;3370;47.712;9.082;2023-07-16T19:02:09;97088.28;;;23.41;70.71
6668;BME280;3370;47.712;9.082;2023-07-16T19:04:35;97083.63;;;23.35;70.73
6668;BME280;3370;47.712;9.082;2023-07-16T19:07:01;97077.00;;;23.31;71.11
6668;BME280;3370;47.712;9.082;2023-07-16T19:09:27;97088.91;;;23.25;71.37
6668;BME280;3370;47.712;9.082;2023-07-16T19:11:53;97075.88;;;23.15;72.28
6668;BME280;3370;47.712;9.082;2023-07-16T19:14:21;97075.19;;;23.13;72.73
6668;BME280;3370;47.712;9.082;2023-07-16T19:16:47;97088.59;;;23.10;72.59
6668;BME280;3370;47.712;9.082;2023-07-16T19:19:12;97102.56;;;23.01;73.29
6668;BME280;3370;47.712;9.082;2023-07-16T19:21:38;97096.53;;;22.91;74.42
6668;BME280;3370;47.712;9.082;2023-07-16T19:24:05;97108.53;;;22.93;75.00
6668;BME280;3370;47.712;9.082;2023-07-16T19:26:31;97114.25;;;22.79;75.03
6668;BME280;3370;47.712;9.082;2023-07-16T19:28:57;97123.28;;;22.57;76.40
6668;BME280;3370;47.712;9.082;2023-07-16T19:31:23;97123.19;;;22.49;76.80
6668;BME280;3370;47.712;9.082;2023-07-16T19:33:49;97129.22;;;22.49;76.25
6668;BME280;3370;47.712;9.082;2023-07-16T19:36:14;97127.06;;;22.45;76.92
6668;BME280;3370;47.712;9.082;2023-07-16T19:38:42;97120.97;;;22.44;76.95
6668;BME280;3370;47.712;9.082;2023-07-16T19:41:08;97128.00;;;22.44;76.90
6668;BME280;3370;47.712;9.082;2023-07-16T19:43:34;97120.81;;;22.46;77.10
6668;BME280;3370;47.712;9.082;2023-07-16T19:46:02;97135.47;;;22.38;77.51
6668;BME280;3370;47.712;9.082;2023-07-16T19:48:31;97141.81;;;22.26;78.18
6668;BME280;3370;47.712;9.082;2023-07-16T19:50:58;97147.47;;;22.21;78.68
6668;BME280;3370;47.712;9.082;2023-07-16T19:53:23;97146.22;;;22.16;79.34
6668;BME280;3370;47.712;9.082;2023-07-16T19:55:49;97151.06;;;22.11;79.69
6668;BME280;3370;47.712;9.082;2023-07-16T19:58:15;97147.06;;;22.07;79.42
6668;BME280;3370;47.712;9.082;2023-07-16T20:00:42;97153.25;;;22.06;79.54
6668;BME280;3370;47.712;9.082;2023-07-16T20:03:08;97153.81;;;21.99;80.10
6668;BME280;3370;47.712;9.082;2023-07-16T20:05:38;97157.66;;;21.95;80.50
6668;BME280;3370;47.712;9.082;2023-07-16T20:08:09;97157.94;;;21.92;81.45
6668;BME280;3370;47.712;9.082;2023-07-16T20:10:39;97154.66;;;21.90;81.78
6668;BME280;3370;47.712;9.082;2023-07-16T20:13:05;97162.63;;;21.89;82.17
6668;BME280;3370;47.712;9.082;2023-07-16T20:15:31;97159.59;;;21.83;82.89
6668;BME280;3370;47.712;9.082;2023-07-16T20:17:57;97171.44;;;21.78;82.66
6668;BME280;3370;47.712;9.082;2023-07-16T20:20:23;97168.81;;;21.78;82.44
6668;BME280;3370;47.712;9.082;2023-07-16T20:22:49;97174.34;;;21.85;82.21
6668;BME280;3370;47.712;9.082;2023-07-16T20:25:15;97180.81;;;21.90;82.27
6668;BME280;3370;47.712;9.082;2023-07-16T20:27:45;97177.91;;;21.83;82.17
6668;BME280;3370;47.712;9.082;2023-07-16T20:30:18;97179.84;;;21.81;82.23
6668;BME280;3370;47.712;9.082;2023-07-16T20:32:44;97184.94;;;21.83;82.51
6668;BME280;3370;47.712;9.082;2023-07-16T20:35:10;97170.75;;;21.76;83.92
6668;BME280;3370;47.712;9.082;2023-07-16T20:37:37;97173.75;;;21.71;84.84
6668;BME280;3370;47.712;9.082;2023-07-16T20:40:05;97171.16;;;21.71;85.14
6668;BME280;3370;47.712;9.082;2023-07-16T20:42:39;97162.75;;;21.68;85.96
6668;BME280;3370;47.712;9.082;2023-07-16T20:47:51;97168.09;;;21.56;86.61
6668;BME280;3370;47.712;9.082;2023-07-16T20:50:20;97165.41;;;21.37;87.50
6668;BME280;3370;47.712;9.082;2023-07-16T20:52:52;97174.34;;;21.34;87.10
6668;BME280;3370;47.712;9.082;2023-07-16T20:55:18;97176.41;;;21.31;87.47
6668;BME280;3370;47.712;9.082;2023-07-16T20:57:45;97180.66;;;21.32;87.97